This is the latest recevied weather packets stored in our database for station/object OE-11061. If no packets are shown the sender has not sent any weather packets the latest 10 day(s).
| Time | Temp. | Humidity | Pressure | Rain* | Wind** | Luminosity | Snow |
|---|---|---|---|---|---|---|---|
| 1788444322 | 25.56° C | 44% | 1019.6 hPa | 0 mm | - | 321 W/m² | - |
| 1788443722 | 26.67° C | 43% | 1019.3 hPa | 0 mm | - | 538 W/m² | - |
| 1788442522 | 26.67° C | 45% | 1019.3 hPa | 0 mm | - | 605 W/m² | - |
| 1788441922 | 26.11° C | 45% | 1019.5 hPa | 0 mm | - | 635 W/m² | - |
| 1788440722 | 26.11° C | 45% | 1019.7 hPa | 0 mm | - | 433 W/m² | - |
| 1788438922 | 26.67° C | 44% | 1019.7 hPa | 0 mm | - | 680 W/m² | - |
| 1788438322 | 25.56° C | 44% | 1019.8 hPa | 0 mm | - | 665 W/m² | - |
| 1788437122 | 26.67° C | 48% | 1019.8 hPa | 0 mm | - | 784 W/m² | - |
| 1788436522 | 26.11° C | 48% | 1019.9 hPa | 0 mm | - | 702 W/m² | - |
| 1788435692 | 25.56° C | 48% | 1020.2 hPa | 0 mm | - | 650 W/m² | - |
| 1788435322 | 25.56° C | 50% | 1020 hPa | 0 mm | - | 620 W/m² | - |
| 1788434722 | 25.56° C | 51% | 1020.1 hPa | 0 mm | - | 724 W/m² | - |
| 1788433895 | 25.56° C | 51% | 1020.3 hPa | 0 mm | - | 635 W/m² | - |
| 1788433522 | 24.44° C | 53% | 1020.5 hPa | 0 mm | - | 418 W/m² | - |
| 1788432922 | 25° C | 50% | 1020.6 hPa | 0 mm | - | 538 W/m² | - |
| 1788431722 | 25.56° C | 50% | 1020.4 hPa | 0 mm | - | 717 W/m² | - |
| 1788431122 | 25.56° C | 49% | 1020.6 hPa | 0 mm | - | 687 W/m² | - |
| 1788430295 | 25.56° C | 48% | 1020.7 hPa | 0 mm | - | 762 W/m² | - |
| 1788429922 | 25.56° C | 47% | 1020.8 hPa | 0 mm | - | 732 W/m² | - |
| 1788429322 | 25° C | 50% | 1020.9 hPa | 0 mm | - | 724 W/m² | - |
| 1788428495 | 24.44° C | 49% | 1021 hPa | 0 mm | - | 687 W/m² | - |
| 1788428122 | 25° C | 49% | 1020.9 hPa | 0 mm | - | 695 W/m² | - |
| 1788426695 | 24.44° C | 52% | 1021.1 hPa | 0 mm | - | 635 W/m² | - |
| 1788426322 | 23.89° C | 55% | 1021.2 hPa | 0 mm | - | 635 W/m² | - |
| 1788425722 | 23.33° C | 58% | 1021.2 hPa | 0 mm | - | 583 W/m² | - |
* Rain latest hour (hover to see other rain measurements)
** Current wind speed in m/s (hover to see current wind gust speed)